Time;durP1;ratioP1;P1;durP2;ratioP2;P2;SDS_P1;SDS_P2;PMS_P1;PMS_P2;Temp;Humidity;BMP_temperature;BMP_pressure;BME280_temperature;BME280_humidity;BME280_pressure;Samples;Min_cycle;Max_cycle;Signal;HPM_P1;HPM_P2
2022/01/04 00:00:11;;;;;;;23.95;11.38;;;;;;;6.76;100.00;98597.13;5035232;28;20025;-82
2022/01/04 00:02:37;;;;;;;28.45;13.60;;;;;;;6.75;100.00;98587.69;5034857;28;20057;-82
2022/01/04 00:05:04;;;;;;;24.15;12.57;;;;;;;6.80;100.00;98587.47;5017131;28;20116;-82
2022/01/04 00:07:30;;;;;;;23.42;11.38;;;;;;;6.68;100.00;98568.19;5017037;28;20036;-82
2022/01/04 00:09:56;;;;;;;20.65;10.73;;;;;;;6.81;100.00;98587.38;4992648;28;20046;-81
2022/01/04 00:15:06;;;;;;;20.48;10.85;;;;;;;6.87;100.00;98586.25;4993304;28;20049;-82
2022/01/04 00:17:32;;;;;;;15.20;8.80;;;;;;;6.81;100.00;98584.78;4976511;28;20027;-82
2022/01/04 00:19:58;;;;;;;12.15;7.28;;;;;;;6.81;100.00;98583.97;4976333;28;20101;-82
2022/01/04 00:22:23;;;;;;;12.57;7.20;;;;;;;6.82;100.00;98578.69;4993162;28;20050;-82
2022/01/04 00:24:49;;;;;;;16.33;7.38;;;;;;;6.86;100.00;98574.22;4992431;28;20410;-82
2022/01/04 00:27:14;;;;;;;12.30;6.70;;;;;;;6.84;100.00;98556.19;4992827;28;20078;-82
2022/01/04 00:29:40;;;;;;;11.27;6.90;;;;;;;6.86;100.00;98556.09;4976283;28;20088;-82
2022/01/04 00:32:05;;;;;;;11.07;5.88;;;;;;;6.85;100.00;98557.03;4976355;28;20065;-82
2022/01/04 00:34:31;;;;;;;11.70;5.80;;;;;;;6.81;100.00;98555.50;4976177;28;20034;-82
2022/01/04 00:36:56;;;;;;;11.32;6.30;;;;;;;6.80;100.00;98551.25;4975972;28;20032;-82
2022/01/04 00:39:22;;;;;;;11.40;6.60;;;;;;;6.79;100.00;98555.59;4992609;28;20030;-82
2022/01/04 00:41:47;;;;;;;9.57;6.53;;;;;;;6.72;100.00;98541.25;5028455;28;20041;-82
2022/01/04 00:44:13;;;;;;;9.32;6.05;;;;;;;6.77;100.00;98541.03;5034315;28;20405;-82
2022/01/04 00:46:38;;;;;;;10.45;6.75;;;;;;;6.73;100.00;98538.59;5034153;28;20054;-82
2022/01/04 00:49:10;;;;;;;10.00;6.15;;;;;;;6.73;100.00;98533.41;5034236;28;20036;-82
2022/01/04 00:51:44;;;;;;;12.57;7.10;;;;;;;6.72;100.00;98549.03;5016405;28;20138;-82
2022/01/04 00:54:10;;;;;;;10.32;6.65;;;;;;;6.66;100.00;98546.75;5033382;28;20481;-82
2022/01/04 00:56:36;;;;;;;12.55;6.70;;;;;;;6.61;100.00;98546.09;5034164;28;20037;-82
2022/01/04 00:59:03;;;;;;;9.13;5.93;;;;;;;6.55;100.00;98536.06;5016071;28;20025;-82
2022/01/04 01:01:29;;;;;;;10.05;5.90;;;;;;;6.45;100.00;98526.16;5016135;28;20104;-82
2022/01/04 01:03:55;;;;;;;11.98;5.80;;;;;;;6.34;100.00;98522.41;5015900;28;20171;-82
2022/01/04 01:06:20;;;;;;;9.68;5.32;;;;;;;6.35;100.00;98530.06;5033731;28;20377;-82
2022/01/04 01:08:46;;;;;;;7.70;5.65;;;;;;;6.29;100.00;98521.78;5015920;28;20116;-82
2022/01/04 01:11:12;;;;;;;8.95;5.97;;;;;;;6.23;100.00;98515.97;5016068;28;20049;-82
2022/01/04 01:13:39;;;;;;;9.07;5.78;;;;;;;6.32;100.00;98524.19;5015763;28;20123;-82
2022/01/04 01:16:05;;;;;;;9.88;6.07;;;;;;;6.23;100.00;98508.22;5015792;28;20033;-82
2022/01/04 01:18:30;;;;;;;8.77;5.43;;;;;;;6.23;100.00;98507.38;5015871;28;20037;-82
2022/01/04 01:20:55;;;;;;;8.80;5.88;;;;;;;6.25;100.00;98503.00;5015521;28;20049;-82
2022/01/04 01:23:22;;;;;;;8.38;5.32;;;;;;;6.18;100.00;98479.16;5015893;28;20159;-81
2022/01/04 01:25:48;;;;;;;7.10;4.78;;;;;;;6.24;100.00;98481.47;5033389;28;20040;-82
2022/01/04 01:28:15;;;;;;;9.38;4.85;;;;;;;6.23;100.00;98468.59;5015530;28;20022;-82
2022/01/04 01:30:43;;;;;;;9.27;4.55;;;;;;;6.32;100.00;98475.94;5015302;28;20025;-82
2022/01/04 01:33:09;;;;;;;7.75;4.88;;;;;;;6.41;100.00;98483.25;5015459;28;20029;-82
2022/01/04 01:35:37;;;;;;;6.28;4.28;;;;;;;6.48;100.00;98476.84;5015735;28;20183;-82
2022/01/04 01:38:03;;;;;;;6.75;4.18;;;;;;;6.49;100.00;98475.94;5015348;28;20021;-82
2022/01/04 01:40:29;;;;;;;6.78;3.88;;;;;;;6.52;100.00;98477.53;5015436;28;20037;-82
2022/01/04 01:42:54;;;;;;;5.53;3.90;;;;;;;6.53;100.00;98476.66;5015215;28;20114;-82
2022/01/04 01:45:21;;;;;;;6.75;4.05;;;;;;;6.54;100.00;98472.31;5015304;28;20029;-82
2022/01/04 01:47:47;;;;;;;7.35;4.07;;;;;;;6.57;100.00;98475.56;5014953;28;20041;-82
2022/01/04 01:50:14;;;;;;;6.25;4.40;;;;;;;6.56;100.00;98466.13;5015299;28;20139;-82
2022/01/04 01:52:41;;;;;;;7.60;4.10;;;;;;;6.57;100.00;98461.78;5015273;28;20045;-82
2022/01/04 01:55:08;;;;;;;5.97;3.65;;;;;;;6.55;100.00;98461.88;4991216;28;20073;-82
2022/01/04 01:57:34;;;;;;;4.22;3.17;;;;;;;6.49;100.00;98452.69;4974776;28;20386;-82
2022/01/04 02:00:00;;;;;;;5.97;3.40;;;;;;;6.56;100.00;98465.28;4990892;28;20050;-82
2022/01/04 02:02:25;;;;;;;5.60;3.55;;;;;;;6.46;100.00;98452.81;4991127;28;20514;-82
2022/01/04 02:04:50;;;;;;;5.90;3.45;;;;;;;6.38;100.00;98436.84;4974445;28;20482;-82
2022/01/04 02:07:19;;;;;;;7.28;3.50;;;;;;;6.41;100.00;98443.63;4974668;28;20038;-82
2022/01/04 02:09:52;;;;;;;4.88;3.33;;;;;;;6.34;100.00;98426.72;4974356;28;20053;-82
2022/01/04 02:12:19;;;;;;;5.30;3.28;;;;;;;6.43;100.00;98431.44;4990695;28;20033;-82
2022/01/04 02:14:49;;;;;;;6.63;3.30;;;;;;;6.46;100.00;98445.06;4990821;28;20069;-82
2022/01/04 02:17:15;;;;;;;8.02;3.22;;;;;;;6.47;100.00;98436.38;4974439;28;20496;-82
2022/01/04 02:19:40;;;;;;;4.40;3.35;;;;;;;6.48;100.00;98429.44;4974375;28;20125;-82
2022/01/04 02:22:06;;;;;;;5.50;3.40;;;;;;;6.48;100.00;98419.94;4990348;28;20057;-82
2022/01/04 02:24:33;;;;;;;4.65;3.25;;;;;;;6.50;100.00;98423.31;4990578;28;20026;-82
2022/01/04 02:26:59;;;;;;;4.65;3.08;;;;;;;6.50;100.00;98420.72;4990127;28;20441;-82
2022/01/04 02:29:24;;;;;;;5.40;3.25;;;;;;;6.58;100.00;98417.75;4974304;28;20398;-82
2022/01/04 02:31:50;;;;;;;5.57;3.38;;;;;;;6.55;100.00;98406.72;4982247;28;20052;-82
2022/01/04 02:34:15;;;;;;;5.28;3.60;;;;;;;6.58;100.00;98407.41;5014606;28;20053;-82
2022/01/04 02:36:41;;;;;;;5.00;3.15;;;;;;;6.60;100.00;98394.38;5014569;28;20071;-82
2022/01/04 02:39:06;;;;;;;4.13;3.03;;;;;;;6.53;100.00;98377.50;5032113;28;20095;-82
2022/01/04 02:41:32;;;;;;;7.03;3.28;;;;;;;6.64;100.00;98390.72;5014410;28;20072;-82
2022/01/04 02:43:57;;;;;;;4.80;3.17;;;;;;;6.65;100.00;98394.97;5014050;28;20037;-82
2022/01/04 02:46:22;;;;;;;3.72;2.90;;;;;;;6.65;100.00;98397.56;5014389;28;20117;-82
2022/01/04 02:48:48;;;;;;;4.40;3.00;;;;;;;6.55;100.00;98366.16;4989881;28;20681;-82
2022/01/04 02:51:13;;;;;;;5.75;3.42;;;;;;;6.56;100.00;98367.81;4990217;28;20042;-82
2022/01/04 02:53:39;;;;;;;7.97;3.90;;;;;;;6.73;100.00;98396.25;4990217;28;20042;-82
2022/01/04 02:56:05;;;;;;;5.90;3.58;;;;;;;6.70;100.00;98382.63;4990123;28;20532;-82
2022/01/04 02:58:30;;;;;;;7.55;4.07;;;;;;;6.56;100.00;98354.06;4973883;28;20077;-82
2022/01/04 03:00:56;;;;;;;6.47;3.90;;;;;;;6.70;100.00;98372.28;4973697;28;20057;-82
2022/01/04 03:03:21;;;;;;;9.80;7.63;;;;;;;6.73;100.00;98361.78;4990080;28;20038;-82
2022/01/04 03:05:46;;;;;;;13.05;8.98;;;;;;;6.77;100.00;98365.88;4989778;28;20113;-82
2022/01/04 03:08:12;;;;;;;9.73;7.45;;;;;;;6.71;100.00;98348.09;4973735;28;20062;-82
2022/01/04 03:10:37;;;;;;;10.52;6.65;;;;;;;6.77;100.00;98358.13;4989878;28;20066;-82
2022/01/04 03:13:05;;;;;;;6.30;5.00;;;;;;;6.68;100.00;98333.56;4973466;28;20023;-82
2022/01/04 03:15:31;;;;;;;8.00;5.03;;;;;;;6.74;100.00;98337.56;4973795;28;20046;-82
2022/01/04 03:17:56;;;;;;;5.90;4.25;;;;;;;6.71;100.00;98337.75;4974798;28;20580;-82
2022/01/04 03:20:21;;;;;;;6.43;3.78;;;;;;;6.78;100.00;98335.66;5024579;28;20129;-82
2022/01/04 03:22:47;;;;;;;5.18;4.10;;;;;;;6.78;100.00;98346.03;5017850;28;20032;-82
2022/01/04 03:25:13;;;;;;;7.30;4.35;;;;;;;6.78;100.00;98343.44;5017825;28;20029;-82
2022/01/04 03:27:38;;;;;;;6.32;3.53;;;;;;;6.84;100.00;98343.13;5035598;28;20465;-82
2022/01/04 03:30:05;;;;;;;6.13;3.35;;;;;;;6.84;100.00;98338.78;5035863;28;20393;-82
2022/01/04 03:32:30;;;;;;;9.73;3.80;;;;;;;6.85;100.00;98340.44;5035936;28;20179;-82
2022/01/04 03:34:56;;;;;;;6.32;4.25;;;;;;;6.85;100.00;98332.69;5035480;28;20477;-82
2022/01/04 03:37:21;;;;;;;13.93;7.28;;;;;;;6.84;100.00;98319.84;5017801;28;20026;-82
2022/01/04 03:39:47;;;;;;;7.70;5.38;;;;;;;6.82;100.00;98313.91;5035898;28;20153;-82
2022/01/04 03:42:13;;;;;;;7.57;5.40;;;;;;;6.80;100.00;98303.63;5035330;28;20029;-82
2022/01/04 03:44:38;;;;;;;5.93;3.90;;;;;;;6.79;100.00;98304.56;5017930;28;20087;-82
2022/01/04 03:47:04;;;;;;;7.10;3.80;;;;;;;6.77;100.00;98297.78;5017397;28;20030;-82
2022/01/04 03:49:29;;;;;;;5.57;3.70;;;;;;;6.61;100.00;98279.63;5035469;28;20036;-82
2022/01/04 03:51:55;;;;;;;7.57;3.85;;;;;;;6.56;100.00;98282.47;5035114;28;20028;-81
2022/01/04 03:54:22;;;;;;;5.80;4.35;;;;;;;6.61;100.00;98298.56;5017490;28;20391;-81
2022/01/04 03:56:48;;;;;;;5.93;3.85;;;;;;;6.49;100.00;98276.78;5017339;28;20041;-81
2022/01/04 03:59:14;;;;;;;7.03;4.60;;;;;;;6.41;100.00;98265.16;5035394;28;20029;-81
2022/01/04 04:01:40;;;;;;;7.72;5.18;;;;;;;6.38;100.00;98267.91;5035163;28;20129;-81
2022/01/04 04:04:05;;;;;;;8.18;4.28;;;;;;;6.30;100.00;98257.94;5034850;28;20112;-81
2022/01/04 04:06:31;;;;;;;5.30;3.90;;;;;;;6.35;100.00;98270.63;5034954;28;20022;-81
2022/01/04 04:08:57;;;;;;;7.75;4.00;;;;;;;6.39;100.00;98266.97;5034753;28;20510;-81
2022/01/04 04:11:24;;;;;;;10.48;6.15;;;;;;;6.38;100.00;98271.31;5034832;28;20033;-81
2022/01/04 04:13:50;;;;;;;11.85;7.93;;;;;;;6.27;100.00;98249.50;5016743;28;20516;-81
2022/01/04 04:16:15;;;;;;;12.65;8.90;;;;;;;6.35;100.00;98261.13;5034895;28;20021;-81
2022/01/04 04:18:40;;;;;;;13.02;10.02;;;;;;;6.40;100.00;98268.66;5017071;28;20088;-81
2022/01/04 04:21:06;;;;;;;9.75;7.43;;;;;;;6.50;100.00;98269.84;5034486;28;20193;-81
2022/01/04 04:23:31;;;;;;;8.13;6.10;;;;;;;6.40;100.00;98253.13;5034647;28;20029;-81
2022/01/04 04:25:57;;;;;;;7.57;5.43;;;;;;;6.48;100.00;98259.56;5034125;28;20116;-81
2022/01/04 04:28:22;;;;;;;8.98;5.72;;;;;;;6.41;100.00;98240.13;5016957;28;20388;-81
2022/01/04 04:30:47;;;;;;;7.10;5.43;;;;;;;6.53;100.00;98255.91;5033574;28;20040;-81
2022/01/04 04:33:13;;;;;;;6.38;5.40;;;;;;;6.55;100.00;98249.75;5016575;28;20026;-81
2022/01/04 04:35:38;;;;;;;7.22;5.38;;;;;;;6.49;100.00;98244.91;5016692;28;20034;-81
2022/01/04 04:38:06;;;;;;;5.43;4.65;;;;;;;6.58;100.00;98252.19;5034138;28;20029;-81
2022/01/04 04:40:32;;;;;;;10.18;5.82;;;;;;;6.61;100.00;98254.59;5016509;28;20029;-81
2022/01/04 04:42:57;;;;;;;8.15;5.80;;;;;;;6.60;100.00;98252.09;5016261;28;20033;-81
2022/01/04 04:45:23;;;;;;;9.93;7.03;;;;;;;6.60;100.00;98247.75;5016623;28;20037;-81
2022/01/04 04:47:49;;;;;;;9.38;6.43;;;;;;;6.59;100.00;98240.09;5016532;28;20107;-81
2022/01/04 04:50:14;;;;;;;7.32;5.38;;;;;;;6.62;100.00;98235.59;5016192;28;20265;-81
2022/01/04 04:52:39;;;;;;;6.03;4.32;;;;;;;6.59;100.00;98232.31;5016334;28;20052;-81
2022/01/04 04:55:06;;;;;;;9.88;5.30;;;;;;;6.47;100.00;98216.53;5033782;28;20125;-81
2022/01/04 04:57:32;;;;;;;6.38;4.18;;;;;;;6.57;100.00;98239.31;5033882;28;20437;-81
2022/01/04 04:59:57;;;;;;;6.82;4.72;;;;;;;6.57;100.00;98231.56;5033722;28;20068;-81
2022/01/04 05:02:22;;;;;;;5.38;3.85;;;;;;;6.52;100.00;98215.44;5016204;28;20087;-81
2022/01/04 05:04:48;;;;;;;8.30;4.20;;;;;;;6.52;100.00;98218.88;5016215;28;20033;-81
2022/01/04 05:07:13;;;;;;;9.00;5.22;;;;;;;6.49;100.00;98211.28;5033522;28;20083;-81
2022/01/04 05:09:39;;;;;;;7.85;5.10;;;;;;;6.49;100.00;98212.13;5033744;28;20072;-81
2022/01/04 05:12:06;;;;;;;9.98;6.03;;;;;;;6.51;100.00;98209.44;5033508;28;20103;-81
2022/01/04 05:14:31;;;;;;;11.05;5.95;;;;;;;6.49;100.00;98212.13;5033893;28;20037;-81
2022/01/04 05:16:57;;;;;;;9.18;5.95;;;;;;;6.49;100.00;98216.47;5033814;28;20381;-81
2022/01/04 05:19:22;;;;;;;8.30;5.18;;;;;;;6.46;100.00;98196.75;5015975;28;20116;-81
2022/01/04 05:21:47;;;;;;;7.07;4.85;;;;;;;6.49;100.00;98198.38;5033748;28;20050;-81
2022/01/04 05:24:13;;;;;;;8.60;6.40;;;;;;;6.48;100.00;98202.66;5015732;28;20559;-81
2022/01/04 05:26:38;;;;;;;8.38;6.70;;;;;;;6.48;100.00;98197.50;5015889;28;20449;-81
2022/01/04 05:29:04;;;;;;;8.75;6.25;;;;;;;6.49;100.00;98195.78;5015661;28;20115;-81
2022/01/04 05:31:29;;;;;;;6.43;4.95;;;;;;;6.45;100.00;98186.50;5015819;28;20082;-80
2022/01/04 05:33:55;;;;;;;7.32;5.55;;;;;;;6.47;100.00;98185.50;5015397;28;20022;-81
2022/01/04 05:36:21;;;;;;;6.78;4.82;;;;;;;6.45;100.00;98171.00;5015599;28;20033;-81
2022/01/04 05:38:47;;;;;;;7.55;6.30;;;;;;;6.56;100.00;98183.34;5015589;28;20025;-81
2022/01/04 05:41:13;;;;;;;5.70;4.75;;;;;;;6.55;100.00;98177.31;5032702;28;20489;-81
2022/01/04 05:43:39;;;;;;;7.28;4.82;;;;;;;6.52;100.00;98169.72;5033319;28;20029;-81
2022/01/04 05:46:04;;;;;;;7.50;5.10;;;;;;;6.52;100.00;98167.13;5032912;28;20029;-81
2022/01/04 05:48:29;;;;;;;8.90;5.82;;;;;;;6.54;100.00;98161.91;5015330;28;20457;-81
2022/01/04 05:50:55;;;;;;;5.97;5.32;;;;;;;6.52;100.00;98158.53;5015288;28;20029;-81
2022/01/04 05:53:20;;;;;;;5.72;4.55;;;;;;;6.48;100.00;98160.47;5032855;28;20022;-81
2022/01/04 05:55:46;;;;;;;7.20;4.97;;;;;;;6.50;100.00;98151.72;5033076;28;20033;-81
2022/01/04 05:58:11;;;;;;;6.70;5.50;;;;;;;6.46;100.00;98139.88;5032784;28;20362;-81
2022/01/04 06:00:37;;;;;;;7.70;4.63;;;;;;;6.52;100.00;98150.78;5015187;28;20087;-81
2022/01/04 06:03:02;;;;;;;6.38;4.63;;;;;;;6.50;100.00;98143.94;5032621;28;20146;-81
2022/01/04 06:05:28;;;;;;;4.43;3.55;;;;;;;6.47;100.00;98135.53;5032966;28;20549;-82
2022/01/04 06:07:54;;;;;;;4.95;4.15;;;;;;;6.49;100.00;98144.03;5014893;28;20546;-81
2022/01/04 06:10:21;;;;;;;14.07;10.63;;;;;;;6.37;100.00;98119.69;5014487;28;20060;-81
2022/01/04 06:15:16;;;;;;;14.27;9.20;;;;;;;6.37;100.00;98106.75;5032339;28;20087;-81
2022/01/04 06:17:48;;;;;;;8.98;7.30;;;;;;;6.49;100.00;98123.34;5014669;28;20029;-81
2022/01/04 06:20:17;;;;;;;7.28;5.30;;;;;;;6.54;100.00;98128.28;5014262;28;20129;-82
2022/01/04 06:22:43;;;;;;;7.03;5.20;;;;;;;6.44;100.00;98115.00;5014620;28;20065;-82
2022/01/04 06:25:12;;;;;;;7.82;4.80;;;;;;;6.44;100.00;98121.00;5014357;28;20052;-81
2022/01/04 06:27:44;;;;;;;6.20;4.60;;;;;;;6.43;100.00;98118.50;5031763;28;20025;-81
2022/01/04 06:30:14;;;;;;;7.82;5.03;;;;;;;6.47;100.00;98117.41;5014452;28;20366;-81
2022/01/04 06:32:42;;;;;;;8.07;4.67;;;;;;;6.48;100.00;98125.06;5014438;28;20083;-81
2022/01/04 06:35:07;;;;;;;7.70;5.60;;;;;;;6.50;100.00;98128.44;5014195;28;20025;-82
2022/01/04 06:37:32;;;;;;;9.88;6.80;;;;;;;6.42;100.00;98093.56;5032245;28;20044;-82
2022/01/04 06:39:58;;;;;;;18.75;10.98;;;;;;;6.51;100.00;98118.91;5014497;28;20389;-81
2022/01/04 06:42:23;;;;;;;18.60;11.65;;;;;;;6.46;100.00;98115.75;5014335;28;20083;-81
2022/01/04 06:44:49;;;;;;;23.65;14.05;;;;;;;6.41;100.00;98094.50;5014388;28;20026;-81
2022/01/04 06:47:15;;;;;;;42.40;23.67;;;;;;;6.47;100.00;98114.84;5031660;28;20033;-81
2022/01/04 06:49:43;;;;;;;62.55;31.50;;;;;;;6.38;100.00;98103.22;5014096;28;20022;-81
2022/01/04 06:52:08;;;;;;;62.35;30.08;;;;;;;6.43;100.00;98108.97;4980289;28;20045;-82
2022/01/04 06:54:35;;;;;;;55.03;28.38;;;;;;;6.48;100.00;98106.97;5032019;28;20524;-82
2022/01/04 06:57:01;;;;;;;32.97;17.83;;;;;;;6.44;100.00;98100.31;5031656;28;20505;-81
2022/01/04 06:59:26;;;;;;;28.40;16.92;;;;;;;6.49;100.00;98102.66;5031925;28;20026;-81
2022/01/04 07:01:53;;;;;;;26.23;16.55;;;;;;;6.53;100.00;98095.53;5014172;28;20064;-81
2022/01/04 07:04:18;;;;;;;37.30;22.20;;;;;;;6.50;100.00;98092.22;5013709;28;20532;-81
2022/01/04 07:06:44;;;;;;;22.65;15.52;;;;;;;6.47;100.00;98087.22;5031935;28;20112;-82
2022/01/04 07:09:11;;;;;;;29.70;19.45;;;;;;;6.49;100.00;98089.72;5031573;28;20025;-82
2022/01/04 07:11:37;;;;;;;33.10;20.98;;;;;;;6.47;100.00;98083.78;5031880;28;20034;-82
2022/01/04 07:14:04;;;;;;;22.38;16.55;;;;;;;6.52;100.00;98076.59;5013689;28;20095;-82
2022/01/04 07:16:30;;;;;;;26.52;17.83;;;;;;;6.47;100.00;98060.50;5013934;28;20391;-82
2022/01/04 07:18:56;;;;;;;41.00;28.75;;;;;;;6.51;100.00;98064.59;5013918;28;20022;-82
2022/01/04 07:21:22;;;;;;;61.72;40.75;;;;;;;6.50;100.00;98061.19;5013561;28;20500;-82
2022/01/04 07:23:51;;;;;;;168.52;99.50;;;;;;;6.48;100.00;98051.84;5014031;28;20033;-82
2022/01/04 07:26:17;;;;;;;32.85;21.65;;;;;;;6.40;100.00;98036.72;5013678;28;20385;-82
2022/01/04 07:28:45;;;;;;;16.73;12.27;;;;;;;6.43;100.00;98039.16;5031430;28;20473;-82
2022/01/04 07:31:10;;;;;;;13.82;10.77;;;;;;;6.46;100.00;98038.16;5013638;28;20029;-81
2022/01/04 07:33:38;;;;;;;15.30;11.43;;;;;;;6.47;100.00;98026.91;5031463;28;20128;-82
2022/01/04 07:36:08;;;;;;;12.93;10.25;;;;;;;6.46;100.00;98020.91;5013746;28;20030;-82
2022/01/04 07:38:35;;;;;;;16.17;10.73;;;;;;;6.53;100.00;98026.56;4957869;28;20125;-82
2022/01/04 07:41:01;;;;;;;12.80;9.55;;;;;;;6.49;100.00;98010.38;4989893;28;20554;-82
2022/01/04 07:43:27;;;;;;;13.13;9.52;;;;;;;6.47;100.00;97999.28;4973479;28;20137;-82
2022/01/04 07:45:53;;;;;;;13.13;10.43;;;;;;;6.45;100.00;97985.63;4973318;28;20116;-82
2022/01/04 07:48:21;;;;;;;13.90;10.88;;;;;;;6.53;100.00;97992.09;4989344;28;20477;-82
2022/01/04 07:50:47;;;;;;;13.95;11.48;;;;;;;6.54;100.00;97993.78;4989693;28;20042;-82
2022/01/04 07:53:12;;;;;;;16.95;12.55;;;;;;;6.54;100.00;97989.44;4973155;28;20026;-82
2022/01/04 07:55:39;;;;;;;17.70;13.88;;;;;;;6.55;100.00;97985.91;4989703;28;20072;-82
2022/01/04 07:58:04;;;;;;;15.73;12.90;;;;;;;6.60;100.00;97986.47;4989253;28;20486;-82
2022/01/04 08:00:30;;;;;;;17.85;13.20;;;;;;;6.54;100.00;97957.56;4931581;29;20046;-81
2022/01/04 08:02:56;;;;;;;19.65;14.98;;;;;;;6.60;100.00;97954.59;4927419;29;20491;-80
2022/01/04 08:05:23;;;;;;;19.35;12.82;;;;;;;6.65;100.00;97944.81;4934323;29;20044;-80
2022/01/04 08:07:49;;;;;;;16.50;11.65;;;;;;;6.69;100.00;97944.56;4934881;29;20495;-81
2022/01/04 08:10:14;;;;;;;15.65;13.02;;;;;;;6.74;100.00;97952.03;4934557;29;20134;-78
2022/01/04 08:12:41;;;;;;;15.48;12.68;;;;;;;6.75;100.00;97945.97;4935281;29;20096;-82
2022/01/04 08:15:11;;;;;;;14.05;12.55;;;;;;;6.81;100.00;97947.38;4940261;28;20133;-78
2022/01/04 08:17:37;;;;;;;;;;;;;;;6.88;100.00;97935.75;4957559;28;20023;-83
2022/01/04 08:20:04;;;;;;;21.15;12.48;;;;;;;6.86;100.00;97925.47;4956502;28;19921;-84
2022/01/04 08:22:36;;;;;;;12.80;10.93;;;;;;;6.87;100.00;97918.53;4973221;28;20057;-81
2022/01/04 08:25:06;;;;;;;17.75;14.77;;;;;;;6.88;100.00;97895.16;4973272;28;20193;-82
2022/01/04 08:27:32;;;;;;;23.48;19.02;;;;;;;6.99;100.00;97908.31;4956955;28;20030;-82
2022/01/04 08:29:58;;;;;;;20.58;16.85;;;;;;;7.00;100.00;97897.03;4956707;28;20050;-82
2022/01/04 08:32:24;;;;;;;21.38;18.80;;;;;;;7.10;100.00;97899.88;5005098;28;20036;-82
2022/01/04 08:34:50;;;;;;;16.95;13.77;;;;;;;7.11;100.00;97887.75;5013326;28;20034;-82
2022/01/04 08:37:17;;;;;;;14.93;13.07;;;;;;;7.27;100.00;97906.63;5013261;28;20021;-82
2022/01/04 08:39:42;;;;;;;14.63;12.52;;;;;;;7.28;100.00;97899.69;5013096;28;20116;-85
2022/01/04 08:42:08;;;;;;;14.60;11.50;;;;;;;7.19;100.00;97888.97;5012039;28;20034;-83
2022/01/04 08:44:39;;;;;;;13.55;11.38;;;;;;;7.22;100.00;97891.38;5013226;28;20041;-83
2022/01/04 08:47:08;;;;;;;;;;;;;;;7.25;100.00;97891.19;5013730;28;20030;-83
2022/01/04 08:49:34;;;;;;;12.45;10.35;;;;;;;7.22;100.00;97885.34;5013106;28;19917;-79
2022/01/04 08:52:02;;;;;;;12.23;10.88;;;;;;;7.22;100.00;97888.78;5014242;28;20373;-83
2022/01/04 08:54:28;;;;;;;15.15;11.55;;;;;;;7.18;100.00;97878.69;5013014;28;20026;-83
2022/01/04 08:56:54;;;;;;;14.65;11.82;;;;;;;7.16;100.00;97867.59;4995645;28;20041;-83
2022/01/04 08:59:21;;;;;;;11.80;10.55;;;;;;;7.17;100.00;97867.53;5012866;28;20018;-82
2022/01/04 09:01:48;;;;;;;14.57;10.82;;;;;;;7.19;100.00;97857.88;5013573;28;20058;-83
2022/01/04 09:04:15;;;;;;;10.57;9.48;;;;;;;7.29;100.00;97873.72;5013709;28;20044;-82
2022/01/04 09:06:40;;;;;;;12.48;10.10;;;;;;;7.35;100.00;97878.50;5013888;28;20672;-82
2022/01/04 09:09:06;;;;;;;10.93;9.82;;;;;;;7.35;100.00;97864.72;5013957;28;20034;-83
2022/01/04 09:11:33;;;;;;;15.23;10.75;;;;;;;7.32;100.00;97841.59;5010800;28;20037;-82
2022/01/04 09:19:18;;;;;;;9.55;8.15;;;;;;;7.50;100.00;97859.44;5011362;28;20507;-81
2022/01/04 09:21:45;;;;;;;11.90;8.48;;;;;;;7.49;100.00;97859.50;4996927;28;20130;-81
2022/01/04 09:24:10;;;;;;;10.55;8.48;;;;;;;7.54;100.00;97862.63;4974690;28;20061;-81
2022/01/04 09:26:36;;;;;;;13.90;10.15;;;;;;;7.49;100.00;97849.97;4975021;28;20038;-82
2022/01/04 09:29:03;;;;;;;12.80;10.43;;;;;;;7.41;100.00;97828.06;4975202;28;20030;-82
2022/01/04 09:31:31;;;;;;;14.60;11.35;;;;;;;7.53;100.00;97836.81;4991144;28;20046;-81
2022/01/04 09:33:59;;;;;;;15.30;12.07;;;;;;;7.48;100.00;97819.00;4975307;28;20097;-82
2022/01/04 09:36:27;;;;;;;15.00;10.55;;;;;;;7.36;100.00;97796.44;4990937;28;20510;-82
2022/01/04 09:38:53;;;;;;;11.82;9.57;;;;;;;7.46;100.00;97813.09;4991128;28;20046;-81
2022/01/04 09:41:18;;;;;;;14.43;10.30;;;;;;;7.47;100.00;97807.81;4988875;28;20070;-81
2022/01/04 09:43:43;;;;;;;13.07;10.90;;;;;;;7.57;100.00;97809.81;4987708;28;20048;-81
2022/01/04 09:46:09;;;;;;;14.73;10.23;;;;;;;7.56;100.00;97806.38;4993113;28;20030;-81
2022/01/04 09:48:34;;;;;;;13.10;9.15;;;;;;;7.48;100.00;97787.91;4990638;28;20062;-81
2022/01/04 09:51:00;;;;;;;12.73;10.50;;;;;;;7.58;100.00;97786.38;4972629;28;20037;-82
2022/01/04 09:53:26;;;;;;;11.73;10.02;;;;;;;7.48;100.00;97769.78;4973733;28;20034;-82
2022/01/04 09:55:54;;;;;;;12.68;10.25;;;;;;;7.57;100.00;97773.53;4972929;28;20034;-83
2022/01/04 09:58:23;;;;;;;15.52;10.68;;;;;;;7.62;100.00;97768.88;4983624;28;20039;-80
2022/01/04 10:00:49;;;;;;;13.40;10.27;;;;;;;7.61;100.00;97765.47;4993622;28;20109;-80
2022/01/04 10:03:16;;;;;;;14.40;11.02;;;;;;;7.63;100.00;97757.59;4993051;28;20449;-80
2022/01/04 10:05:43;;;;;;;15.00;10.13;;;;;;;7.64;100.00;97767.03;4992946;28;20457;-80
2022/01/04 10:08:10;;;;;;;12.70;10.25;;;;;;;7.62;100.00;97761.94;4993079;28;20038;-80
2022/01/04 10:10:37;;;;;;;15.77;11.77;;;;;;;7.56;100.00;97741.63;4991253;28;20029;-80
2022/01/04 10:13:06;;;;;;;13.30;11.90;;;;;;;7.62;100.00;97756.75;4973795;28;20022;-80
2022/01/04 10:15:41;;;;;;;14.32;11.65;;;;;;;7.66;100.00;97760.81;4973714;28;20148;-80
2022/01/04 10:18:12;;;;;;;18.52;12.82;;;;;;;7.68;100.00;97766.72;4971964;28;20018;-80
2022/01/04 10:20:42;;;;;;;19.35;14.23;;;;;;;7.66;100.00;97744.44;4984293;28;20045;-80
2022/01/04 10:23:20;;;;;;;16.50;13.50;;;;;;;7.57;100.00;97721.72;4995044;28;20041;-79
2022/01/04 10:25:46;;;;;;;16.05;13.15;;;;;;;7.66;100.00;97739.25;5012310;28;20036;-84
2022/01/04 10:28:26;;;;;;;16.73;12.55;;;;;;;7.64;100.00;97725.59;5011681;28;20033;-82
2022/01/04 10:30:51;;;;;;;15.23;12.25;;;;;;;7.64;100.00;97721.22;5012564;28;20057;-81
2022/01/04 10:33:21;;;;;;;17.75;12.95;;;;;;;7.62;100.00;97717.06;4994710;28;20088;-81
2022/01/04 10:35:49;;;;;;;20.30;12.80;;;;;;;7.64;100.00;97713.44;4994805;28;20033;-82
2022/01/04 10:38:34;;;;;;;19.33;11.98;;;;;;;7.66;100.00;97701.22;4994262;28;20572;-81
2022/01/04 10:41:23;;;;;;;16.95;12.60;;;;;;;7.67;100.00;97691.69;4994646;28;20358;-84
2022/01/04 10:43:59;;;;;;;22.70;15.02;;;;;;;7.63;100.00;97682.47;5012544;28;20021;-82
2022/01/04 10:46:38;;;;;;;15.02;12.07;;;;;;;7.63;100.00;97669.53;5011795;28;20040;-83
2022/01/04 10:49:21;;;;;;;17.05;12.73;;;;;;;7.76;100.00;97688.50;4994228;28;20040;-81
2022/01/04 10:52:08;;;;;;;15.80;11.55;;;;;;;7.75;100.00;97681.63;5021931;28;20032;-80
2022/01/04 10:54:34;;;;;;;15.82;11.95;;;;;;;7.79;100.00;97679.66;5031746;28;20033;-84
2022/01/04 10:57:10;;;;;;;13.77;10.50;;;;;;;7.80;100.00;97676.16;5014199;28;20135;-83
2022/01/04 10:59:37;;;;;;;14.10;11.02;;;;;;;7.82;100.00;97664.75;5031543;28;20079;-83
2022/01/04 11:02:03;;;;;;;13.52;11.10;;;;;;;7.87;100.00;97665.25;5013584;28;20084;-83
2022/01/04 11:04:28;;;;;;;15.88;10.93;;;;;;;7.86;100.00;97647.25;5031200;28;20064;-83
2022/01/04 11:07:00;;;;;;;13.90;10.18;;;;;;;7.80;100.00;97635.53;5031663;28;20053;-84
2022/01/04 11:09:26;;;;;;;15.82;11.63;;;;;;;7.90;100.00;97633.97;5013737;28;20484;-83
2022/01/04 11:11:54;;;;;;;16.13;11.13;;;;;;;7.81;100.00;97607.84;5014008;28;20029;-84
2022/01/04 11:14:19;;;;;;;13.23;10.45;;;;;;;8.01;100.00;97622.88;5031534;28;20033;-84
2022/01/04 11:16:45;;;;;;;15.60;10.68;;;;;;;8.04;100.00;97616.63;5013970;28;20032;-83
2022/01/04 11:19:10;;;;;;;18.17;10.18;;;;;;;8.16;100.00;97620.97;5013776;28;20112;-84
2022/01/04 11:21:38;;;;;;;17.50;12.30;;;;;;;8.15;100.00;97599.41;5031128;28;20045;-79
2022/01/04 11:24:06;;;;;;;18.80;13.07;;;;;;;8.23;100.00;97607.50;5013422;28;20469;-79
2022/01/04 11:26:33;;;;;;;14.70;10.43;;;;;;;8.25;100.00;97600.41;5013295;28;20032;-79
2022/01/04 11:28:59;;;;;;;12.90;9.32;;;;;;;8.32;100.00;97594.81;5031414;28;20048;-78
2022/01/04 11:31:37;;;;;;;13.65;8.82;;;;;;;8.21;100.00;97565.25;5013450;28;20040;-77
2022/01/04 11:34:13;;;;;;;14.55;8.60;;;;;;;8.40;100.00;97583.00;5031069;28;20036;-78